Time;durP1;ratioP1;P1;durP2;ratioP2;P2;SDS_P1;SDS_P2;PMS_P1;PMS_P2;Temp;Humidity;BMP_temperature;BMP_pressure;BME280_temperature;BME280_humidity;BME280_pressure;Samples;Min_cycle;Max_cycle;Signal;HPM_P1;HPM_P2
2023/11/20 00:00:39;;;;;;;27.17;16.40;;;15.00;87.80;;;;;;5073083;28;20457;-76
2023/11/20 00:03:05;;;;;;;23.98;16.02;;;15.00;87.90;;;;;;5071997;28;20036;-76
2023/11/20 00:05:31;;;;;;;26.77;15.68;;;15.00;87.90;;;;;;5072803;28;20033;-74
2023/11/20 00:07:57;;;;;;;19.70;14.77;;;14.90;87.90;;;;;;5054569;28;20496;-74
2023/11/20 00:10:22;;;;;;;26.25;13.45;;;14.90;88.10;;;;;;5072506;28;20535;-74
2023/11/20 00:12:48;;;;;;;27.25;15.32;;;14.90;88.30;;;;;;5066941;28;20128;-74
2023/11/20 00:15:14;;;;;;;22.88;13.73;;;14.90;88.20;;;;;;5071999;28;20488;-74
2023/11/20 00:17:39;;;;;;;23.33;13.82;;;14.90;88.20;;;;;;5072104;28;20032;-74
2023/11/20 00:20:06;;;;;;;24.70;13.20;;;14.90;88.40;;;;;;5054510;28;20028;-74
2023/11/20 00:22:32;;;;;;;20.95;13.38;;;14.90;88.20;;;;;;5072353;28;20029;-74
2023/11/20 00:24:58;;;;;;;21.58;13.20;;;15.00;88.40;;;;;;5065661;28;20037;-74
2023/11/20 00:27:24;;;;;;;24.80;13.55;;;15.00;88.10;;;;;;5052239;28;20538;-74
2023/11/20 00:29:49;;;;;;;22.98;14.23;;;15.00;88.00;;;;;;5051486;28;20049;-76
2023/11/20 00:32:15;;;;;;;24.55;14.18;;;15.00;88.20;;;;;;5052225;28;20033;-75
2023/11/20 00:34:41;;;;;;;21.80;13.98;;;15.00;88.20;;;;;;5052353;28;20120;-74
2023/11/20 00:37:07;;;;;;;24.33;13.68;;;15.00;88.20;;;;;;5052138;28;20029;-75
2023/11/20 00:39:32;;;;;;;23.33;13.30;;;15.10;88.50;;;;;;5052082;28;20029;-75
2023/11/20 00:41:58;;;;;;;23.20;13.48;;;15.10;88.50;;;;;;5034193;28;20029;-73
2023/11/20 00:44:24;;;;;;;23.95;13.98;;;15.10;88.50;;;;;;5052081;28;20520;-73
2023/11/20 00:46:49;;;;;;;24.33;13.20;;;15.10;88.70;;;;;;5051816;28;20032;-73
2023/11/20 00:49:15;;;;;;;21.33;13.60;;;15.10;89.50;;;;;;5052200;28;20449;-75
2023/11/20 00:51:41;;;;;;;20.80;12.43;;;15.10;89.00;;;;;;5059728;28;20039;-74
2023/11/20 00:54:06;;;;;;;23.70;13.80;;;15.10;88.90;;;;;;5052837;28;20029;-74
2023/11/20 00:56:32;;;;;;;27.85;13.40;;;15.20;89.00;;;;;;5071834;28;20178;-73
2023/11/20 00:58:58;;;;;;;22.63;13.32;;;15.20;89.10;;;;;;5071693;28;20456;-74
2023/11/20 01:01:24;;;;;;;20.90;12.95;;;15.20;89.00;;;;;;5071420;28;20029;-74
2023/11/20 01:03:49;;;;;;;25.27;12.88;;;15.20;89.10;;;;;;5071526;28;20037;-75
2023/11/20 01:06:15;;;;;;;22.00;12.90;;;15.20;89.30;;;;;;5071734;28;20028;-74
2023/11/20 01:08:41;;;;;;;20.40;13.75;;;15.20;89.30;;;;;;5071752;28;20036;-74
2023/11/20 01:11:10;;;;;;;21.38;13.00;;;15.20;89.30;;;;;;5071624;28;20535;-73
2023/11/20 01:13:37;;;;;;;25.77;13.35;;;15.20;89.10;;;;;;5066206;28;20039;-74
2023/11/20 01:16:06;;;;;;;21.88;12.25;;;15.10;89.60;;;;;;5071873;28;20111;-75
2023/11/20 01:18:32;;;;;;;21.85;12.25;;;15.10;89.30;;;;;;5071609;28;20435;-73
2023/11/20 01:20:58;;;;;;;18.33;11.32;;;15.10;89.70;;;;;;5071751;28;20033;-74
2023/11/20 01:23:24;;;;;;;23.40;12.93;;;15.10;89.80;;;;;;5071398;28;20032;-74
2023/11/20 01:25:50;;;;;;;18.83;11.10;;;15.10;90.00;;;;;;5071580;28;20056;-75
2023/11/20 01:28:16;;;;;;;23.20;11.35;;;15.10;90.00;;;;;;5071675;28;20036;-73
2023/11/20 01:30:42;;;;;;;19.23;11.05;;;15.10;89.90;;;;;;5071754;28;20056;-74
2023/11/20 01:33:08;;;;;;;17.52;10.55;;;15.10;90.00;;;;;;5071687;28;20033;-74
2023/11/20 01:35:33;;;;;;;24.52;10.90;;;15.00;90.00;;;;;;5071447;28;20037;-74
2023/11/20 01:37:59;;;;;;;16.60;10.27;;;15.00;90.00;;;;;;5069327;28;20115;-74
2023/11/20 01:40:25;;;;;;;17.17;9.95;;;15.00;90.00;;;;;;5071769;28;20078;-74
2023/11/20 01:42:51;;;;;;;26.17;11.57;;;14.90;90.10;;;;;;5075086;28;20045;-74
2023/11/20 01:45:16;;;;;;;17.73;10.68;;;14.90;90.10;;;;;;5075118;28;20035;-75
2023/11/20 01:47:43;;;;;;;19.15;11.38;;;14.80;90.20;;;;;;5075080;28;20111;-75
2023/11/20 01:50:11;;;;;;;20.40;11.27;;;14.70;90.20;;;;;;5075109;28;20045;-74
2023/11/20 01:52:42;;;;;;;16.92;10.75;;;14.70;90.40;;;;;;5074893;28;20035;-75
2023/11/20 01:55:09;;;;;;;19.20;10.20;;;14.60;90.40;;;;;;5074972;28;20040;-74
2023/11/20 01:57:36;;;;;;;18.73;11.10;;;14.60;90.40;;;;;;5074894;28;20558;-74
2023/11/20 02:00:09;;;;;;;17.80;10.68;;;14.60;90.40;;;;;;5075151;28;20028;-74
2023/11/20 02:02:40;;;;;;;15.32;9.40;;;14.60;90.50;;;;;;5074801;28;20041;-73
2023/11/20 02:05:06;;;;;;;18.70;10.38;;;14.60;90.40;;;;;;5074810;28;20052;-74
2023/11/20 02:07:36;;;;;;;17.85;9.40;;;14.60;90.40;;;;;;5074623;28;20032;-74
2023/11/20 02:10:03;;;;;;;18.30;10.30;;;14.70;90.50;;;;;;5074447;28;20047;-73
2023/11/20 02:12:29;;;;;;;17.15;10.18;;;14.70;90.50;;;;;;5074602;28;20539;-75
2023/11/20 02:14:55;;;;;;;16.67;10.02;;;14.70;90.40;;;;;;5074592;28;20036;-73
2023/11/20 02:17:21;;;;;;;18.88;10.20;;;14.80;90.40;;;;;;5069050;28;20172;-73
2023/11/20 02:19:50;;;;;;;17.85;9.65;;;14.80;90.70;;;;;;5074414;28;20052;-75
2023/11/20 02:22:16;;;;;;;18.13;10.13;;;14.90;90.40;;;;;;5074400;28;20384;-74
2023/11/20 02:24:46;;;;;;;17.45;9.65;;;14.90;90.40;;;;;;5074430;28;20024;-75
2023/11/20 02:27:36;;;;;;;16.48;9.23;;;14.90;90.40;;;;;;5074304;28;20421;-74
2023/11/20 02:30:05;;;;;;;15.23;9.45;;;14.90;90.20;;;;;;5056059;28;20055;-75
2023/11/20 02:32:32;;;;;;;16.23;8.85;;;14.90;90.40;;;;;;5056199;28;20105;-74
2023/11/20 02:35:01;;;;;;;18.90;9.20;;;14.90;90.40;;;;;;5077037;28;20059;-74
2023/11/20 02:37:29;;;;;;;15.52;9.07;;;14.90;90.40;;;;;;5083353;28;20071;-75
2023/11/20 02:39:54;;;;;;;15.57;9.10;;;14.90;90.40;;;;;;5076295;28;20048;-73
2023/11/20 02:42:20;;;;;;;14.32;9.52;;;14.80;90.40;;;;;;5074148;28;20036;-74
2023/11/20 02:44:53;;;;;;;15.55;9.52;;;14.90;90.40;;;;;;5073939;28;20123;-73
2023/11/20 02:47:18;;;;;;;16.42;9.25;;;14.80;90.40;;;;;;5073759;28;20029;-74
2023/11/20 02:49:44;;;;;;;18.45;9.63;;;14.80;90.40;;;;;;5073433;28;20101;-74
2023/11/20 02:52:10;;;;;;;20.85;9.60;;;14.80;90.40;;;;;;5073220;28;20036;-75
2023/11/20 02:54:37;;;;;;;16.27;9.40;;;14.80;90.40;;;;;;5073497;28;20485;-74
2023/11/20 02:57:03;;;;;;;16.10;9.63;;;14.80;90.40;;;;;;5073653;28;20024;-73
2023/11/20 02:59:29;;;;;;;19.38;9.27;;;14.70;90.40;;;;;;5073390;28;20043;-75
2023/11/20 03:01:55;;;;;;;17.05;9.40;;;14.70;90.40;;;;;;5073562;28;20037;-74
2023/11/20 03:04:21;;;;;;;19.00;9.88;;;14.70;90.40;;;;;;5073986;28;20071;-75
2023/11/20 03:06:47;;;;;;;14.88;9.10;;;14.60;90.40;;;;;;5074155;28;20028;-74
2023/11/20 03:09:13;;;;;;;15.27;9.07;;;14.60;90.80;;;;;;5073668;28;20036;-73
2023/11/20 03:11:39;;;;;;;15.00;8.98;;;14.60;90.50;;;;;;5073599;28;20488;-74
2023/11/20 03:14:04;;;;;;;15.52;9.27;;;14.60;90.50;;;;;;5073743;28;20056;-74
2023/11/20 03:16:30;;;;;;;20.52;9.75;;;14.60;90.60;;;;;;5073555;28;20033;-74
2023/11/20 03:18:57;;;;;;;15.02;8.60;;;14.60;90.50;;;;;;5073342;28;20037;-75
2023/11/20 03:21:27;;;;;;;14.57;8.50;;;14.60;90.60;;;;;;5073147;28;20538;-74
2023/11/20 03:23:54;;;;;;;16.38;8.30;;;14.60;90.60;;;;;;5073204;28;20028;-74
2023/11/20 03:26:23;;;;;;;16.27;8.75;;;14.60;90.60;;;;;;5073003;28;20089;-74
2023/11/20 03:28:49;;;;;;;18.88;8.43;;;14.60;90.60;;;;;;5067323;28;20087;-74
2023/11/20 03:31:15;;;;;;;14.20;8.32;;;14.60;90.60;;;;;;5072660;28;20167;-74
2023/11/20 03:33:42;;;;;;;14.48;8.75;;;14.60;90.70;;;;;;5073001;28;20119;-74
2023/11/20 03:36:08;;;;;;;14.02;8.10;;;14.50;90.80;;;;;;5072702;28;20492;-75
2023/11/20 03:38:34;;;;;;;15.98;8.27;;;14.50;90.70;;;;;;5072819;28;20031;-73
2023/11/20 03:41:00;;;;;;;19.92;8.43;;;14.50;90.80;;;;;;5072838;28;20023;-77
2023/11/20 03:43:28;;;;;;;15.15;8.45;;;14.50;90.90;;;;;;5054840;28;20554;-75
2023/11/20 03:45:54;;;;;;;16.05;7.80;;;14.50;90.90;;;;;;5072499;28;20025;-76
2023/11/20 03:48:19;;;;;;;13.02;7.82;;;14.60;91.00;;;;;;5072539;28;20554;-74
2023/11/20 03:50:45;;;;;;;14.35;8.55;;;14.60;91.00;;;;;;5072486;28;20067;-74
2023/11/20 03:53:11;;;;;;;19.70;9.32;;;14.60;91.00;;;;;;5072780;28;20111;-74
2023/11/20 03:55:37;;;;;;;14.93;7.75;;;14.60;91.10;;;;;;5072516;28;20041;-74
2023/11/20 03:58:03;;;;;;;16.92;9.02;;;14.60;91.10;;;;;;5072545;28;20105;-73
2023/11/20 04:00:32;;;;;;;14.45;7.47;;;14.60;91.20;;;;;;5072266;28;20103;-75
2023/11/20 04:02:59;;;;;;;20.52;8.63;;;14.60;91.30;;;;;;5054102;28;20036;-74
2023/11/20 04:05:25;;;;;;;17.77;8.93;;;14.50;91.20;;;;;;5054117;28;20467;-73
2023/11/20 04:07:50;;;;;;;15.73;8.50;;;14.50;91.20;;;;;;5072409;28;20096;-74
2023/11/20 04:10:16;;;;;;;18.17;8.00;;;14.50;91.30;;;;;;5072013;28;20064;-74
2023/11/20 04:12:45;;;;;;;14.93;8.38;;;14.50;91.30;;;;;;5072413;28;20032;-74
2023/11/20 04:15:10;;;;;;;15.38;8.30;;;14.40;91.30;;;;;;5072249;28;20059;-74
2023/11/20 04:17:36;;;;;;;15.40;8.48;;;14.50;91.30;;;;;;5072363;28;20064;-74
2023/11/20 04:20:03;;;;;;;16.13;8.48;;;14.50;91.30;;;;;;5072507;28;20503;-76
2023/11/20 04:22:29;;;;;;;16.20;8.40;;;14.50;91.20;;;;;;5072069;28;20033;-74
2023/11/20 04:24:55;;;;;;;17.50;8.60;;;14.50;91.30;;;;;;5072119;28;20032;-74
2023/11/20 04:27:20;;;;;;;13.38;8.38;;;14.50;91.30;;;;;;5072254;28;20537;-75
2023/11/20 04:29:46;;;;;;;15.85;8.23;;;14.50;91.30;;;;;;5071926;28;20044;-74
2023/11/20 04:32:12;;;;;;;19.95;8.48;;;14.50;91.30;;;;;;5072012;28;20024;-75
2023/11/20 04:34:37;;;;;;;19.63;7.90;;;14.50;91.40;;;;;;5072428;28;20055;-75
2023/11/20 04:37:03;;;;;;;16.88;8.10;;;14.40;91.40;;;;;;5072216;28;20395;-76
2023/11/20 04:39:29;;;;;;;17.33;8.85;;;14.50;91.40;;;;;;5071824;28;20021;-74
2023/11/20 04:41:55;;;;;;;14.07;8.00;;;14.40;91.40;;;;;;5071809;28;20029;-74
2023/11/20 04:44:21;;;;;;;18.27;8.18;;;14.50;91.50;;;;;;5071616;28;20067;-75
2023/11/20 04:46:46;;;;;;;14.73;8.35;;;14.50;91.40;;;;;;5066355;28;20454;-75
2023/11/20 04:49:12;;;;;;;15.65;8.10;;;14.50;91.40;;;;;;5072046;28;20071;-75
2023/11/20 04:51:38;;;;;;;18.67;8.68;;;14.40;91.40;;;;;;5071734;28;20029;-75
2023/11/20 04:54:04;;;;;;;15.27;8.40;;;14.40;91.50;;;;;;5072150;28;20091;-75
2023/11/20 04:56:32;;;;;;;13.90;7.45;;;14.40;91.50;;;;;;5072211;28;20504;-75
2023/11/20 04:58:57;;;;;;;13.90;8.07;;;14.50;91.60;;;;;;5072584;28;20028;-75
2023/11/20 05:01:23;;;;;;;14.70;7.38;;;14.40;91.60;;;;;;5073510;28;20040;-75
2023/11/20 05:03:49;;;;;;;11.98;7.47;;;14.40;91.60;;;;;;5053808;28;20032;-73
2023/11/20 05:06:15;;;;;;;13.13;7.07;;;14.40;91.60;;;;;;5071754;28;20056;-74
2023/11/20 05:08:41;;;;;;;15.40;8.50;;;14.50;91.70;;;;;;5072073;28;20039;-76
2023/11/20 05:11:06;;;;;;;15.88;8.48;;;14.50;91.70;;;;;;5071729;28;20430;-74
2023/11/20 05:13:32;;;;;;;18.05;8.98;;;14.50;91.70;;;;;;5071810;28;20021;-74
2023/11/20 05:15:58;;;;;;;16.33;7.88;;;14.50;91.60;;;;;;5075021;28;20472;-75
2023/11/20 05:18:24;;;;;;;12.98;7.55;;;14.50;91.70;;;;;;5075599;28;20033;-76
2023/11/20 05:20:50;;;;;;;19.10;8.77;;;14.60;91.80;;;;;;5075146;28;20033;-75
2023/11/20 05:23:15;;;;;;;14.80;8.15;;;14.60;91.70;;;;;;5075679;28;20063;-74
2023/11/20 05:25:41;;;;;;;17.17;8.32;;;14.70;91.70;;;;;;5057749;28;20040;-75
2023/11/20 05:28:07;;;;;;;18.08;8.00;;;14.70;91.70;;;;;;5075283;28;20040;-73
2023/11/20 05:30:32;;;;;;;14.63;7.78;;;14.70;91.70;;;;;;5075551;28;20036;-75
2023/11/20 05:32:58;;;;;;;12.45;7.35;;;14.70;91.70;;;;;;5075177;28;20052;-74
2023/11/20 05:35:24;;;;;;;15.18;6.45;;;14.70;91.70;;;;;;5075077;28;20036;-76
2023/11/20 05:37:49;;;;;;;13.60;7.32;;;14.70;91.80;;;;;;5075273;28;20025;-74
2023/11/20 05:40:17;;;;;;;15.13;8.20;;;14.80;91.80;;;;;;5075064;28;20064;-75
2023/11/20 05:42:43;;;;;;;17.30;7.57;;;14.80;91.80;;;;;;5075128;28;20116;-75
2023/11/20 05:45:09;;;;;;;19.65;7.97;;;14.80;91.90;;;;;;5075356;28;20058;-74
2023/11/20 05:47:35;;;;;;;12.77;7.13;;;14.80;92.00;;;;;;5075392;28;20096;-75
2023/11/20 05:50:01;;;;;;;14.73;7.38;;;14.80;92.00;;;;;;5074844;28;20508;-75
2023/11/20 05:52:29;;;;;;;13.32;6.70;;;14.90;92.00;;;;;;5069694;28;20037;-75
2023/11/20 05:54:55;;;;;;;18.85;7.75;;;14.90;92.10;;;;;;5075079;28;20392;-76
2023/11/20 05:57:24;;;;;;;14.75;7.95;;;14.90;92.40;;;;;;5074862;28;20067;-75
2023/11/20 05:59:49;;;;;;;14.32;7.65;;;14.90;92.10;;;;;;5074872;28;20064;-74
2023/11/20 06:02:15;;;;;;;18.42;8.70;;;14.90;92.10;;;;;;5075182;28;20067;-76
2023/11/20 06:04:41;;;;;;;17.45;9.15;;;14.90;92.10;;;;;;5074875;28;20086;-75
2023/11/20 06:07:07;;;;;;;18.20;7.30;;;14.90;92.20;;;;;;5075054;28;20448;-75
2023/11/20 06:09:33;;;;;;;21.10;8.88;;;14.90;92.20;;;;;;5074287;28;20119;-75
2023/11/20 06:11:58;;;;;;;20.15;8.00;;;14.90;92.30;;;;;;5074505;28;20037;-73
2023/11/20 06:14:24;;;;;;;20.05;7.53;;;14.90;92.30;;;;;;5074545;28;20032;-75
2023/11/20 06:16:50;;;;;;;16.58;7.40;;;14.90;92.30;;;;;;5074888;28;20051;-76
2023/11/20 06:19:16;;;;;;;15.65;7.68;;;15.00;92.40;;;;;;5074671;28;20040;-75
2023/11/20 06:21:51;;;;;;;17.67;7.07;;;15.00;92.40;;;;;;5074592;28;20036;-74
2023/11/20 06:24:18;;;;;;;14.68;7.78;;;15.10;92.50;;;;;;5074293;28;20561;-74
2023/11/20 06:26:44;;;;;;;19.65;7.70;;;15.10;92.50;;;;;;5073760;28;20522;-75
2023/11/20 06:29:10;;;;;;;15.38;7.35;;;15.10;92.50;;;;;;5074008;28;20064;-74
2023/11/20 06:31:36;;;;;;;15.57;6.45;;;15.20;92.50;;;;;;5074233;28;20171;-75
2023/11/20 06:34:01;;;;;;;20.60;7.82;;;15.30;92.50;;;;;;5074334;28;20036;-74
2023/11/20 06:36:27;;;;;;;15.20;7.80;;;15.30;92.60;;;;;;5074065;28;20361;-74
2023/11/20 06:38:53;;;;;;;15.50;7.97;;;15.30;92.50;;;;;;5056291;28;20045;-76
2023/11/20 06:41:21;;;;;;;21.85;8.40;;;15.40;92.50;;;;;;5074411;28;20032;-79
2023/11/20 06:43:47;;;;;;;19.40;7.32;;;15.50;92.50;;;;;;5074172;28;20055;-75
2023/11/20 06:46:23;;;;;;;16.02;7.68;;;15.50;92.60;;;;;;5072690;28;20033;-77
2023/11/20 06:48:49;;;;;;;15.45;6.97;;;15.60;92.70;;;;;;5053776;28;20076;-76
2023/11/20 06:51:16;;;;;;;15.60;7.03;;;15.60;92.60;;;;;;5054040;28;20064;-79
2023/11/20 06:53:45;;;;;;;19.65;7.38;;;15.70;92.70;;;;;;5054525;28;20037;-80
2023/11/20 06:56:21;;;;;;;20.52;7.80;;;15.80;92.70;;;;;;5054080;28;20033;-78
2023/11/20 06:58:47;;;;;;;12.32;6.25;;;15.80;92.70;;;;;;5039239;28;20029;-80
2023/11/20 07:01:14;;;;;;;16.25;6.45;;;15.80;92.60;;;;;;5056546;28;20079;-78
2023/11/20 07:03:42;;;;;;;18.25;7.15;;;15.90;92.70;;;;;;5053744;28;20029;-76
2023/11/20 07:06:12;;;;;;;12.45;6.63;;;15.90;92.70;;;;;;5054111;28;20460;-76
2023/11/20 07:08:38;;;;;;;16.55;7.20;;;15.90;92.70;;;;;;5058927;28;20086;-78
2023/11/20 07:11:04;;;;;;;17.85;7.63;;;16.00;92.70;;;;;;5053685;28;20052;-76
2023/11/20 07:13:30;;;;;;;18.75;7.05;;;16.00;92.70;;;;;;5060323;28;20041;-76
2023/11/20 07:15:57;;;;;;;15.55;6.82;;;16.00;92.70;;;;;;5056665;28;20059;-77
2023/11/20 07:18:24;;;;;;;18.50;7.55;;;16.10;92.70;;;;;;5053149;28;20029;-78
2023/11/20 07:20:49;;;;;;;21.45;7.53;;;16.10;92.70;;;;;;5063820;28;20115;-77
2023/11/20 07:23:15;;;;;;;16.98;7.82;;;16.10;92.70;;;;;;5073335;28;20118;-76
2023/11/20 07:25:42;;;;;;;16.38;7.10;;;16.20;92.70;;;;;;5056748;28;20037;-76
2023/11/20 07:28:08;;;;;;;22.77;8.10;;;16.20;92.70;;;;;;5052992;28;20068;-77
2023/11/20 07:30:34;;;;;;;19.88;8.15;;;16.20;92.60;;;;;;5053010;28;20488;-77
2023/11/20 07:33:01;;;;;;;20.13;7.25;;;16.30;92.70;;;;;;5052656;28;20384;-77
2023/11/20 07:35:27;;;;;;;22.42;8.93;;;16.30;92.80;;;;;;5052507;28;20039;-77
2023/11/20 07:37:53;;;;;;;19.40;9.32;;;16.30;92.80;;;;;;5052014;28;20052;-77
2023/11/20 07:40:19;;;;;;;21.33;9.13;;;16.30;92.80;;;;;;5052534;28;20033;-77
2023/11/20 07:42:45;;;;;;;22.65;10.20;;;16.40;92.80;;;;;;5052815;28;20032;-78
2023/11/20 07:45:12;;;;;;;20.88;8.98;;;16.40;92.80;;;;;;5052706;28;20131;-78
2023/11/20 07:47:39;;;;;;;27.23;10.60;;;16.50;92.70;;;;;;5052597;28;20033;-76
2023/11/20 07:50:05;;;;;;;24.13;10.00;;;16.60;92.70;;;;;;5052716;28;20374;-78
2023/11/20 07:52:31;;;;;;;19.63;9.50;;;16.60;92.70;;;;;;5052365;28;20049;-78
2023/11/20 07:54:57;;;;;;;21.95;9.57;;;16.70;92.70;;;;;;5067570;28;20040;-84
2023/11/20 07:57:24;;;;;;;21.52;9.43;;;16.80;92.70;;;;;;5074073;28;20480;-85
2023/11/20 07:59:52;;;;;;;20.45;9.90;;;16.80;92.70;;;;;;5076621;28;20044;-91
2023/11/20 08:02:19;;;;;;;19.52;10.65;;;16.90;92.50;;;;;;5073980;28;20055;-91
2023/11/20 08:04:45;;;;;;;21.75;11.82;;;17.00;92.70;;;;;;5067472;28;20503;-91
2023/11/20 08:07:14;;;;;;;19.02;10.55;;;17.00;92.70;;;;;;5056919;28;20065;-92
2023/11/20 08:09:40;;;;;;;18.08;10.82;;;17.00;92.60;;;;;;5058929;28;20057;-88
2023/11/20 08:12:06;;;;;;;18.33;10.77;;;17.10;92.70;;;;;;5067779;28;20025;-91
2023/11/20 08:14:33;;;;;;;18.88;9.43;;;17.10;92.80;;;;;;5080851;28;20126;-92
2023/11/20 08:16:59;;;;;;;18.50;11.25;;;17.10;92.80;;;;;;5057369;28;20033;-84
2023/11/20 08:19:25;;;;;;;24.63;11.60;;;17.10;92.80;;;;;;5075602;28;20063;-84
2023/11/20 08:21:51;;;;;;;22.13;9.63;;;17.20;92.90;;;;;;5068278;28;20041;-81
2023/11/20 08:24:17;;;;;;;20.35;10.63;;;17.20;92.90;;;;;;5057138;28;20029;-81
2023/11/20 08:26:44;;;;;;;19.65;8.73;;;17.20;92.90;;;;;;5052726;28;20064;-82
2023/11/20 08:29:16;;;;;;;18.75;8.48;;;17.30;93.00;;;;;;5051877;28;20546;-83
2023/11/20 08:31:43;;;;;;;19.10;8.38;;;17.30;92.70;;;;;;5052301;28;20130;-83
2023/11/20 08:34:09;;;;;;;26.00;10.10;;;17.40;92.90;;;;;;5053163;28;20033;-84
2023/11/20 08:36:35;;;;;;;22.08;10.63;;;17.40;92.90;;;;;;5062085;28;20480;-85
2023/11/20 08:39:05;;;;;;;20.05;10.25;;;17.50;92.90;;;;;;5073716;28;20035;-80
2023/11/20 08:41:31;;;;;;;23.20;10.02;;;17.60;92.90;;;;;;5073201;28;20466;-84
2023/11/20 08:43:59;;;;;;;24.00;10.13;;;17.70;92.90;;;;;;5078666;28;20064;-83
2023/11/20 08:46:25;;;;;;;20.83;9.15;;;17.70;92.80;;;;;;5071830;28;20040;-84
2023/11/20 08:48:51;;;;;;;32.70;10.63;;;17.80;92.80;;;;;;5072629;28;20101;-83
2023/11/20 08:51:17;;;;;;;20.90;9.90;;;17.90;92.70;;;;;;5057268;28;20049;-82
2023/11/20 08:53:43;;;;;;;25.20;10.05;;;17.90;92.70;;;;;;5069335;28;20029;-85
2023/11/20 08:56:10;;;;;;;18.08;8.52;;;18.00;92.70;;;;;;5051977;28;20045;-82
2023/11/20 08:58:36;;;;;;;21.08;8.45;;;18.00;92.70;;;;;;5062634;28;20043;-86
2023/11/20 09:01:02;;;;;;;19.08;8.98;;;18.00;92.80;;;;;;5076511;28;20033;-89
2023/11/20 09:03:28;;;;;;;18.42;7.93;;;18.00;92.70;;;;;;5077079;28;20086;-88
2023/11/20 09:05:54;;;;;;;36.58;8.45;;;18.00;92.80;;;;;;5078726;28;20039;-89
2023/11/20 09:08:19;;;;;;;17.35;7.13;;;18.00;92.90;;;;;;5079691;28;20396;-86
2023/11/20 09:10:45;;;;;;;16.75;6.47;;;18.00;92.90;;;;;;5087624;28;20040;-83
2023/11/20 09:13:11;;;;;;;18.23;6.90;;;18.00;92.90;;;;;;5082796;28;20108;-89
2023/11/20 09:15:36;;;;;;;17.60;6.95;;;18.10;92.90;;;;;;5063570;28;20047;-89
2023/11/20 09:18:02;;;;;;;18.45;7.13;;;18.10;92.80;;;;;;5078814;28;20059;-88
2023/11/20 09:20:28;;;;;;;20.50;7.78;;;18.20;92.70;;;;;;5081782;28;20029;-87
2023/11/20 09:22:53;;;;;;;18.65;7.78;;;18.20;92.70;;;;;;5076134;28;20028;-87
2023/11/20 09:25:19;;;;;;;21.35;7.45;;;18.30;92.70;;;;;;5080765;28;20033;-90
2023/11/20 09:27:48;;;;;;;19.05;7.45;;;18.30;92.70;;;;;;5079328;28;20032;-87
2023/11/20 09:30:14;;;;;;;24.75;7.97;;;18.30;92.70;;;;;;5029518;28;1476757;-88
2023/11/20 09:32:40;;;;;;;23.55;7.45;;;18.30;92.70;;;;;;5080384;28;20033;-89
2023/11/20 09:35:08;;;;;;;18.85;7.13;;;18.40;92.70;;;;;;5061783;28;20093;-88
2023/11/20 09:37:34;;;;;;;21.83;7.10;;;18.40;92.60;;;;;;5067459;28;20024;-88
2023/11/20 09:40:04;;;;;;;22.50;7.40;;;18.50;92.70;;;;;;5086537;28;20037;-89
2023/11/20 09:42:30;;;;;;;15.10;6.47;;;18.60;92.60;;;;;;5097477;28;20112;-88
2023/11/20 09:45:00;;;;;;;18.10;8.05;;;18.60;92.50;;;;;;5096844;28;20036;-88
2023/11/20 09:47:30;;;;;;;20.05;8.20;;;18.70;92.40;;;;;;5083628;28;20031;-87
2023/11/20 09:49:57;;;;;;;18.65;8.60;;;18.80;92.40;;;;;;5081055;28;20052;-88
2023/11/20 09:52:26;;;;;;;19.55;9.18;;;18.80;92.30;;;;;;5081584;28;20035;-90
2023/11/20 09:54:58;;;;;;;18.35;9.02;;;18.90;92.30;;;;;;5078977;28;20040;-89
2023/11/20 09:57:26;;;;;;;21.85;9.70;;;18.80;92.10;;;;;;5078635;28;20495;-89
2023/11/20 09:59:53;;;;;;;19.60;7.97;;;18.90;92.30;;;;;;5078594;28;20040;-89
2023/11/20 10:02:20;;;;;;;17.15;7.60;;;18.90;92.20;;;;;;5078467;28;20028;-90
2023/11/20 10:04:54;;;;;;;19.92;8.15;;;18.90;92.20;;;;;;5078462;28;20043;-89
2023/11/20 10:07:24;;;;;;;23.17;8.35;;;18.90;92.20;;;;;;5078266;28;20090;-90
2023/11/20 10:09:52;;;;;;;18.13;7.97;;;18.90;92.20;;;;;;5078905;28;20047;-89
2023/11/20 10:12:18;;;;;;;21.73;8.00;;;18.90;92.10;;;;;;5081369;28;20137;-90
2023/11/20 10:14:45;;;;;;;17.90;6.68;;;18.90;92.10;;;;;;5081231;28;20558;-88
2023/11/20 10:17:14;;;;;;;19.83;6.45;;;19.00;92.10;;;;;;5087335;28;20033;-89
2023/11/20 10:19:40;;;;;;;16.38;6.40;;;19.00;92.00;;;;;;5090270;28;20515;-89
2023/11/20 10:22:06;;;;;;;17.75;6.85;;;19.10;92.10;;;;;;5078699;28;20032;-87
2023/11/20 10:24:32;;;;;;;17.05;6.47;;;19.10;92.00;;;;;;5077652;28;20033;-88
2023/11/20 10:26:57;;;;;;;16.08;6.68;;;19.20;91.80;;;;;;5082438;28;20025;-90
2023/11/20 10:29:25;;;;;;;15.32;6.05;;;19.30;91.70;;;;;;5094392;28;20044;-88
2023/11/20 10:31:50;;;;;;;16.08;5.50;;;19.30;91.60;;;;;;5083272;28;20528;-90
2023/11/20 10:34:19;;;;;;;18.02;6.00;;;19.40;91.50;;;;;;5078400;28;20043;-89
2023/11/20 10:37:04;;;;;;;17.30;6.50;;;19.50;91.40;;;;;;5077336;28;20060;-88
2023/11/20 10:39:30;;;;;;;22.58;8.25;;;19.60;91.30;;;;;;5077477;28;20116;-90
2023/11/20 10:41:57;;;;;;;18.90;6.85;;;19.60;91.10;;;;;;5078684;28;20154;-89
2023/11/20 10:44:25;;;;;;;15.43;7.40;;;19.70;91.10;;;;;;5077524;28;20422;-89
2023/11/20 10:46:52;;;;;;;20.10;6.82;;;19.60;91.00;;;;;;5060253;28;20033;-88
2023/11/20 10:49:24;;;;;;;14.45;6.55;;;19.60;90.90;;;;;;5081379;28;20052;-89
2023/11/20 10:51:55;;;;;;;13.52;6.03;;;19.70;91.00;;;;;;5081272;28;20032;-90
2023/11/20 10:54:30;;;;;;;15.85;6.85;;;19.70;90.90;;;;;;5078946;28;20028;-90
2023/11/20 10:57:05;;;;;;;12.45;6.25;;;19.80;90.90;;;;;;5077366;28;20028;-87
2023/11/20 10:59:39;;;;;;;14.20;6.40;;;19.80;90.70;;;;;;5058723;28;20036;-91
2023/11/20 11:02:10;;;;;;;14.70;6.22;;;19.90;90.80;;;;;;5077220;28;20033;-91
2023/11/20 11:04:39;;;;;;;15.00;6.95;;;19.90;90.60;;;;;;5080094;28;20034;-88
2023/11/20 11:07:08;;;;;;;11.60;5.55;;;20.00;90.50;;;;;;5078022;28;20032;-90
2023/11/20 11:09:37;;;;;;;17.17;6.13;;;20.10;90.40;;;;;;5076857;28;20037;-89
2023/11/20 11:12:05;;;;;;;18.45;6.35;;;20.20;90.30;;;;;;5077253;28;20066;-89
2023/11/20 11:14:31;;;;;;;21.88;6.68;;;20.20;90.20;;;;;;5080847;28;20357;-88
2023/11/20 11:17:10;;;;;;;18.52;6.50;;;20.30;90.10;;;;;;5081613;28;20078;-90
2023/11/20 11:19:42;;;;;;;15.38;6.22;;;20.30;90.10;;;;;;5079076;28;20527;-91
2023/11/20 11:22:13;;;;;;;16.98;6.55;;;20.30;90.20;;;;;;5059192;28;20472;-89
2023/11/20 11:24:44;;;;;;;17.85;5.65;;;20.30;89.80;;;;;;5076141;28;20074;-89
2023/11/20 11:27:16;;;;;;;15.48;5.13;;;20.40;89.70;;;;;;5074835;28;20029;-78
2023/11/20 11:29:46;;;;;;;17.33;5.72;;;20.30;90.00;;;;;;5073050;28;20147;-80
2023/11/20 11:32:36;;;;;;;13.80;5.00;;;20.30;89.50;;;;;;5049832;28;20033;-78
2023/11/20 11:35:13;;;;;;;16.00;5.47;;;20.30;89.50;;;;;;5042979;28;20044;-79
2023/11/20 11:38:06;;;;;;;13.48;5.00;;;20.30;89.60;;;;;;5054373;28;20041;-78
2023/11/20 11:41:00;;;;;;;15.70;3.93;;;20.40;89.50;;;;;;5065737;28;20073;-78
2023/11/20 11:43:37;;;;;;;14.18;4.80;;;20.40;89.30;;;;;;5069521;28;20036;-78
2023/11/20 11:46:03;;;;;;;16.00;5.13;;;20.40;89.00;;;;;;5073120;28;20360;-80
2023/11/20 11:48:38;;;;;;;13.40;5.10;;;20.40;88.70;;;;;;5072618;28;20025;-79
2023/11/20 11:51:05;;;;;;;13.18;5.43;;;20.40;88.60;;;;;;5072787;28;20094;-79
2023/11/20 11:53:31;;;;;;;15.27;5.38;;;20.40;88.60;;;;;;5072433;28;20116;-76
2023/11/20 11:56:08;;;;;;;14.35;5.50;;;20.30;88.30;;;;;;5054343;28;20032;-79
2023/11/20 11:58:36;;;;;;;14.35;5.75;;;20.30;88.80;;;;;;5072088;28;20025;-78
2023/11/20 12:01:16;;;;;;;13.10;5.90;;;20.20;88.40;;;;;;5072087;28;20468;-79
2023/11/20 12:03:41;;;;;;;11.50;4.93;;;20.20;88.30;;;;;;5052830;28;20032;-78
2023/11/20 12:06:11;;;;;;;16.42;5.15;;;20.30;88.20;;;;;;5052622;28;20498;-79
2023/11/20 12:08:37;;;;;;;15.15;5.13;;;20.30;87.90;;;;;;5051781;28;20465;-78
2023/11/20 12:11:03;;;;;;;9.55;4.50;;;20.20;87.60;;;;;;5051820;28;20124;-80
2023/11/20 12:13:29;;;;;;;16.38;6.43;;;20.30;87.50;;;;;;5069722;28;20039;-81
2023/11/20 12:16:06;;;;;;;12.45;5.10;;;20.30;87.40;;;;;;5072507;28;20476;-82
2023/11/20 12:18:34;;;;;;;12.05;4.93;;;20.40;87.20;;;;;;5072629;28;20104;-90
2023/11/20 12:21:10;;;;;;;19.55;5.80;;;20.40;87.20;;;;;;5066548;28;20029;-86
2023/11/20 12:23:37;;;;;;;14.88;5.57;;;20.40;86.90;;;;;;5058672;28;20043;-86
2023/11/20 12:26:09;;;;;;;10.88;5.93;;;20.40;86.50;;;;;;5066769;28;20040;-89
2023/11/20 12:28:36;;;;;;;12.70;5.32;;;20.40;86.50;;;;;;5063664;28;20076;-83
2023/11/20 12:31:04;;;;;;;15.18;4.07;;;20.40;86.40;;;;;;5065536;28;20044;-89
2023/11/20 12:33:34;;;;;;;16.40;3.97;;;20.40;86.20;;;;;;5048546;28;20033;-88
2023/11/20 12:36:01;;;;;;;8.77;3.53;;;20.40;86.40;;;;;;5078251;28;20036;-85